createdAt,value
2018-06-09T00:00:54.873Z,13.97
2018-06-09T00:03:23.478Z,12.73
2018-06-09T00:05:52.241Z,12.10
2018-06-09T00:08:20.870Z,13.10
2018-06-09T00:10:49.600Z,11.20
2018-06-09T00:13:18.198Z,10.80
2018-06-09T00:15:46.857Z,10.40
2018-06-09T00:18:15.500Z,10.20
2018-06-09T00:20:44.127Z,10.93
2018-06-09T00:23:12.784Z,9.20
2018-06-09T00:25:41.394Z,9.23
2018-06-09T00:28:10.016Z,10.70
2018-06-09T00:30:38.619Z,9.70
2018-06-09T00:33:07.356Z,9.80
2018-06-09T00:35:35.959Z,11.07
2018-06-09T00:38:04.256Z,10.20
2018-06-09T00:40:32.904Z,9.90
2018-06-09T00:43:01.594Z,10.50
2018-06-09T00:45:30.285Z,10.70
2018-06-09T00:47:58.903Z,10.33
2018-06-09T00:50:27.514Z,10.07
2018-06-09T00:52:56.163Z,9.97
2018-06-09T00:55:24.801Z,11.90
2018-06-09T00:57:53.570Z,11.20
2018-06-09T01:00:22.210Z,13.30
2018-06-09T01:02:50.894Z,12.57
2018-06-09T01:05:19.477Z,11.50
2018-06-09T01:07:48.202Z,12.87
2018-06-09T01:10:17.201Z,12.60
2018-06-09T01:12:45.817Z,12.53
2018-06-09T01:15:14.434Z,13.13
2018-06-09T01:17:43.072Z,11.63
2018-06-09T01:20:11.757Z,12.10
2018-06-09T01:22:40.349Z,13.63
2018-06-09T01:25:09.005Z,14.60
2018-06-09T01:27:37.716Z,13.20
2018-06-09T01:30:06.367Z,13.30
2018-06-09T01:32:35.248Z,13.03
2018-06-09T01:35:03.914Z,12.37
2018-06-09T01:37:32.513Z,12.17
2018-06-09T01:40:01.068Z,13.30
2018-06-09T01:42:29.726Z,11.97
2018-06-09T01:44:58.431Z,11.90
2018-06-09T01:47:26.994Z,12.13
2018-06-09T01:49:55.586Z,11.77
2018-06-09T01:52:24.160Z,11.23
2018-06-09T01:54:52.759Z,11.40
2018-06-09T01:57:21.327Z,10.73
2018-06-09T01:59:49.921Z,11.00
2018-06-09T02:02:18.554Z,10.73
2018-06-09T02:04:47.107Z,10.20
2018-06-09T02:07:15.765Z,10.43
2018-06-09T02:09:44.349Z,10.97
2018-06-09T02:12:13.003Z,10.20
2018-06-09T02:14:41.599Z,9.67
2018-06-09T02:17:10.224Z,10.80
2018-06-09T02:19:38.891Z,10.23
2018-06-09T02:22:07.528Z,13.00
2018-06-09T02:24:36.161Z,11.00
2018-06-09T02:27:04.826Z,11.50
2018-06-09T02:29:33.439Z,11.80
2018-06-09T02:32:02.164Z,10.80
2018-06-09T02:34:30.783Z,10.30
2018-06-09T02:36:59.427Z,12.17
2018-06-09T02:39:28.019Z,12.20
2018-06-09T02:41:56.630Z,12.03
2018-06-09T02:44:25.230Z,12.60
2018-06-09T02:46:53.880Z,11.10
2018-06-09T02:49:22.571Z,12.13
2018-06-09T02:51:51.150Z,11.87
2018-06-09T02:54:19.827Z,12.47
2018-06-09T02:56:48.429Z,12.27
2018-06-09T02:59:17.086Z,11.83
2018-06-09T03:01:45.651Z,12.27
2018-06-09T03:04:14.211Z,12.23
2018-06-09T03:06:42.808Z,11.33
2018-06-09T03:09:11.388Z,12.17
2018-06-09T03:11:39.988Z,12.40
2018-06-09T03:14:08.590Z,11.90
2018-06-09T03:16:37.898Z,12.17
2018-06-09T03:19:06.640Z,12.30
2018-06-09T03:21:35.251Z,13.40
2018-06-09T03:24:03.892Z,12.60
2018-06-09T03:26:32.458Z,12.63
2018-06-09T03:29:01.103Z,12.90
2018-06-09T03:31:29.675Z,12.20
2018-06-09T03:33:58.303Z,12.93
2018-06-09T03:36:26.982Z,11.77
2018-06-09T03:38:55.559Z,12.70
2018-06-09T03:41:24.190Z,11.50
2018-06-09T03:43:52.796Z,12.47
2018-06-09T03:46:21.415Z,13.17
2018-06-09T03:48:50.100Z,11.63
2018-06-09T03:51:18.696Z,12.30
2018-06-09T03:53:47.308Z,12.00
2018-06-09T03:56:15.892Z,13.20
2018-06-09T03:58:44.531Z,12.70
2018-06-09T04:01:13.129Z,11.87
2018-06-09T04:03:41.729Z,13.77
2018-06-09T04:06:10.390Z,11.00
2018-06-09T04:08:39.029Z,11.90
2018-06-09T04:11:07.605Z,12.40
2018-06-09T04:13:36.212Z,11.57
2018-06-09T04:16:04.820Z,11.30
2018-06-09T04:18:34.310Z,11.00
2018-06-09T04:21:02.876Z,10.43
2018-06-09T04:23:31.497Z,12.43
2018-06-09T04:26:00.179Z,11.13
2018-06-09T04:28:28.731Z,11.37
2018-06-09T04:30:57.344Z,12.40
2018-06-09T04:33:25.960Z,12.23
2018-06-09T04:35:54.549Z,11.03
2018-06-09T04:38:23.641Z,11.50
2018-06-09T04:40:52.234Z,11.00
2018-06-09T04:43:20.808Z,10.10
2018-06-09T04:45:49.420Z,10.17
2018-06-09T04:48:18.013Z,10.93
2018-06-09T04:50:46.710Z,10.70
2018-06-09T04:53:15.303Z,11.67
2018-06-09T04:55:44.040Z,11.20
2018-06-09T04:58:12.649Z,10.70
2018-06-09T05:00:41.199Z,11.00
2018-06-09T05:03:09.839Z,10.57
2018-06-09T05:05:38.418Z,11.17
2018-06-09T05:08:07.093Z,10.80
2018-06-09T05:10:35.643Z,11.43
2018-06-09T05:13:04.229Z,9.90
2018-06-09T05:15:32.555Z,10.20
2018-06-09T05:18:01.172Z,10.70
2018-06-09T05:20:29.929Z,11.07
2018-06-09T05:22:58.542Z,10.47
2018-06-09T05:25:27.144Z,11.47
2018-06-09T05:27:55.783Z,10.60
2018-06-09T05:30:24.396Z,10.40
2018-06-09T05:32:52.990Z,11.00
2018-06-09T05:35:21.569Z,10.33
2018-06-09T05:37:50.129Z,10.70
2018-06-09T05:40:19.274Z,9.33
2018-06-09T05:42:47.847Z,9.20
2018-06-09T05:45:16.442Z,9.80
2018-06-09T05:47:45.030Z,10.97
2018-06-09T05:50:13.636Z,10.30
2018-06-09T05:52:42.285Z,10.53
2018-06-09T05:55:10.868Z,10.50
2018-06-09T05:57:39.501Z,11.10
2018-06-09T06:00:08.280Z,10.10
2018-06-09T06:02:36.965Z,10.60
2018-06-09T06:05:06.200Z,10.63
2018-06-09T06:07:34.846Z,11.07
2018-06-09T06:10:03.496Z,11.50
2018-06-09T06:12:32.118Z,10.43
2018-06-09T06:15:00.712Z,11.47
2018-06-09T06:17:29.347Z,11.33
2018-06-09T06:19:57.981Z,10.80
2018-06-09T06:22:26.559Z,10.87
2018-06-09T06:24:55.525Z,11.10
2018-06-09T06:27:24.346Z,12.10
2018-06-09T06:29:52.994Z,11.43
2018-06-09T06:32:22.251Z,10.90
2018-06-09T06:34:50.846Z,11.10
2018-06-09T06:37:19.476Z,12.13
2018-06-09T06:39:48.065Z,11.77
2018-06-09T06:42:16.913Z,11.57
2018-06-09T06:44:45.219Z,11.30
2018-06-09T06:47:13.882Z,13.53
2018-06-09T06:49:42.526Z,11.10
2018-06-09T06:52:11.143Z,11.67
2018-06-09T06:54:40.032Z,11.10
2018-06-09T06:57:08.719Z,11.87
2018-06-09T06:59:37.373Z,10.63
2018-06-09T07:02:06.064Z,11.53
2018-06-09T07:04:34.714Z,12.90
2018-06-09T07:07:03.329Z,12.60
2018-06-09T07:09:31.902Z,11.93
2018-06-09T07:12:00.650Z,12.33
2018-06-09T07:14:29.266Z,11.43
2018-06-09T07:16:57.914Z,11.83
2018-06-09T07:19:26.230Z,12.00
2018-06-09T07:21:55.399Z,12.83
2018-06-09T07:24:24.102Z,12.57
2018-06-09T07:26:52.684Z,12.30
2018-06-09T07:29:21.302Z,12.00
2018-06-09T07:31:49.894Z,11.40
2018-06-09T07:34:18.459Z,11.67
2018-06-09T07:36:47.072Z,12.50
2018-06-09T07:39:15.737Z,12.30
2018-06-09T07:41:44.596Z,12.40
2018-06-09T07:44:13.212Z,12.07
2018-06-09T07:46:41.817Z,12.77
2018-06-09T07:49:10.380Z,12.33
2018-06-09T07:51:39.026Z,13.33
2018-06-09T07:54:07.607Z,12.60
2018-06-09T07:56:35.904Z,12.57
2018-06-09T07:59:04.504Z,13.97
2018-06-09T08:01:33.095Z,13.77
2018-06-09T08:04:01.758Z,12.53
2018-06-09T08:06:30.465Z,12.60
2018-06-09T08:08:59.041Z,12.17
2018-06-09T08:11:27.617Z,13.90
2018-06-09T08:13:56.231Z,13.27
2018-06-09T08:16:24.793Z,13.33
2018-06-09T08:18:53.398Z,13.20
2018-06-09T08:21:22.014Z,13.93
2018-06-09T08:23:50.644Z,13.97
2018-06-09T08:26:19.259Z,13.17
2018-06-09T08:28:47.869Z,12.60
2018-06-09T08:31:16.494Z,13.20
2018-06-09T08:33:45.105Z,15.07
2018-06-09T08:36:13.805Z,15.00
2018-06-09T08:38:42.443Z,12.80
2018-06-09T08:41:11.152Z,13.37
2018-06-09T08:43:39.825Z,14.20
2018-06-09T08:46:08.476Z,14.40
2018-06-09T08:48:37.118Z,14.00
2018-06-09T08:51:05.703Z,14.40
2018-06-09T08:53:34.334Z,14.43
2018-06-09T08:56:02.923Z,14.63
2018-06-09T08:58:31.192Z,13.07
2018-06-09T09:00:59.863Z,13.63
2018-06-09T09:03:28.506Z,14.50
2018-06-09T09:05:57.173Z,14.80
2018-06-09T09:08:25.827Z,13.50
2018-06-09T09:10:54.411Z,14.30
2018-06-09T09:13:23.031Z,14.97
2018-06-09T09:15:51.591Z,14.73
2018-06-09T09:18:20.307Z,19.13
2018-06-09T09:20:48.878Z,14.80
2018-06-09T09:23:17.544Z,14.57
2018-06-09T09:25:46.131Z,13.60
2018-06-09T09:28:14.857Z,15.00
2018-06-09T09:30:44.258Z,18.50
2018-06-09T09:33:12.898Z,16.37
2018-06-09T09:35:41.496Z,14.87
2018-06-09T09:38:10.216Z,24.00
2018-06-09T09:40:38.981Z,16.57
2018-06-09T09:43:07.629Z,14.87
2018-06-09T09:45:36.270Z,15.80
2018-06-09T09:48:04.916Z,14.30
2018-06-09T09:50:33.484Z,17.13
2018-06-09T09:53:02.833Z,15.80
2018-06-09T09:55:31.439Z,15.27
2018-06-09T09:58:01.653Z,15.10
2018-06-09T10:00:35.800Z,17.20
2018-06-09T10:03:04.506Z,15.37
2018-06-09T10:05:33.242Z,15.47
2018-06-09T10:08:01.920Z,15.67
2018-06-09T10:10:30.487Z,15.50
2018-06-09T10:12:59.130Z,17.10
2018-06-09T10:15:27.719Z,23.47
2018-06-09T10:17:56.365Z,15.33
2018-06-09T10:20:25.007Z,16.17
2018-06-09T10:22:53.666Z,16.33
2018-06-09T10:25:22.462Z,18.10
2018-06-09T10:27:51.101Z,17.70
2018-06-09T10:30:19.817Z,16.70
2018-06-09T10:32:48.526Z,15.90
2018-06-09T10:35:17.281Z,17.50
2018-06-09T10:37:46.060Z,17.67
2018-06-09T10:40:14.765Z,18.87
2018-06-09T10:42:43.575Z,17.33
2018-06-09T10:45:12.717Z,17.63
2018-06-09T10:47:41.532Z,16.40
2018-06-09T10:50:10.221Z,18.13
2018-06-09T10:52:38.852Z,19.67
2018-06-09T10:55:07.455Z,16.77
2018-06-09T10:57:36.171Z,19.07
2018-06-09T11:00:04.962Z,18.90
2018-06-09T11:02:33.637Z,17.00
2018-06-09T11:05:02.294Z,15.93
2018-06-09T11:07:30.997Z,16.80
2018-06-09T11:09:59.845Z,17.80
2018-06-09T11:12:28.514Z,18.60
2018-06-09T11:14:57.111Z,19.20
2018-06-09T11:17:25.708Z,18.00
2018-06-09T11:19:53.953Z,18.90
2018-06-09T11:22:22.581Z,19.23
2018-06-09T11:24:51.370Z,19.10
2018-06-09T11:27:19.978Z,19.23
2018-06-09T11:29:48.691Z,20.53
2018-06-09T11:32:17.403Z,20.00
2018-06-09T11:34:45.733Z,22.03
2018-06-09T11:37:14.454Z,20.50
2018-06-09T11:39:43.161Z,19.83
2018-06-09T11:42:17.960Z,21.30
2018-06-09T11:44:46.591Z,20.47
2018-06-09T11:47:15.179Z,20.27
2018-06-09T11:49:43.788Z,20.53
2018-06-09T11:52:12.421Z,20.60
2018-06-09T11:54:41.094Z,18.03
2018-06-09T11:57:09.667Z,21.10
2018-06-09T11:59:38.316Z,18.90
2018-06-09T12:02:06.939Z,20.23
2018-06-09T12:04:35.588Z,21.77
2018-06-09T12:07:04.224Z,20.40
2018-06-09T12:09:32.820Z,21.10
2018-06-09T12:12:01.366Z,19.10
2018-06-09T12:14:29.986Z,21.83
2018-06-09T12:16:58.355Z,19.80
2018-06-09T12:19:27.004Z,21.53
2018-06-09T12:21:55.604Z,21.07
2018-06-09T12:24:24.296Z,21.23
2018-06-09T12:26:53.029Z,23.10
2018-06-09T12:29:21.689Z,20.80
2018-06-09T12:31:50.372Z,22.00
2018-06-09T12:34:19.044Z,20.10
2018-06-09T12:36:47.717Z,18.03
2018-06-09T12:39:16.372Z,19.30
2018-06-09T12:41:44.908Z,23.57
2018-06-09T12:44:13.582Z,22.40
2018-06-09T12:46:42.452Z,21.33
2018-06-09T12:49:11.086Z,21.43
2018-06-09T12:51:39.831Z,20.20
2018-06-09T12:54:08.449Z,22.40
2018-06-09T12:56:36.790Z,21.07
2018-06-09T12:59:05.666Z,21.00
2018-06-09T13:01:34.249Z,17.73
2018-06-09T13:04:03.007Z,21.00
2018-06-09T13:06:31.629Z,21.20
2018-06-09T13:09:00.216Z,26.23
2018-06-09T13:11:28.842Z,20.70
2018-06-09T13:13:57.516Z,29.90
2018-06-09T13:16:26.163Z,21.13
2018-06-09T13:18:54.770Z,21.87
2018-06-09T13:21:23.378Z,22.27
2018-06-09T13:23:51.992Z,19.40
2018-06-09T13:26:20.615Z,19.87
2018-06-09T13:28:49.198Z,20.00
2018-06-09T13:31:17.820Z,17.83
2018-06-09T13:33:46.439Z,17.87
2018-06-09T13:36:15.090Z,18.10
2018-06-09T13:38:43.756Z,18.07
2018-06-09T13:41:12.380Z,19.03
2018-06-09T13:43:41.008Z,19.87
2018-06-09T13:46:09.686Z,18.97
2018-06-09T13:48:38.254Z,18.53
2018-06-09T13:51:06.897Z,18.67
2018-06-09T13:53:35.466Z,18.13
2018-06-09T13:56:04.158Z,19.97
2018-06-09T13:58:32.825Z,20.30
2018-06-09T14:01:01.443Z,20.03
2018-06-09T14:03:30.041Z,17.17
2018-06-09T14:05:58.614Z,19.47
2018-06-09T14:08:27.333Z,20.20
2018-06-09T14:10:56.097Z,20.40
2018-06-09T14:13:24.703Z,21.00
2018-06-09T14:15:53.295Z,17.17
2018-06-09T14:18:21.943Z,20.10
2018-06-09T14:20:50.568Z,17.63
2018-06-09T14:23:19.339Z,20.30
2018-06-09T14:25:47.906Z,19.50
2018-06-09T14:28:16.549Z,17.37
2018-06-09T14:30:45.115Z,21.00
2018-06-09T14:33:13.758Z,17.87
2018-06-09T14:35:42.341Z,18.80
2018-06-09T14:38:11.104Z,21.43
2018-06-09T14:40:39.773Z,18.10
2018-06-09T14:43:08.395Z,19.07
2018-06-09T14:45:36.975Z,17.53
2018-06-09T14:48:05.624Z,18.97
2018-06-09T14:50:34.249Z,17.70
2018-06-09T14:53:02.830Z,17.60
2018-06-09T14:55:31.464Z,20.13
2018-06-09T14:58:00.075Z,20.70
2018-06-09T15:00:28.715Z,17.40
2018-06-09T15:02:57.329Z,15.67
2018-06-09T15:05:25.948Z,18.57
2018-06-09T15:07:54.207Z,16.93
2018-06-09T15:10:22.866Z,16.80
2018-06-09T15:12:51.457Z,19.90
2018-06-09T15:15:20.089Z,18.53
2018-06-09T15:17:48.691Z,18.57
2018-06-09T15:20:17.322Z,17.53
2018-06-09T15:22:46.026Z,17.87
2018-06-09T15:25:14.530Z,18.73
2018-06-09T15:27:43.160Z,17.40
2018-06-09T15:30:11.832Z,17.03
2018-06-09T15:32:40.451Z,16.47
2018-06-09T15:35:09.157Z,19.27
2018-06-09T15:37:37.776Z,18.80
2018-06-09T15:40:06.414Z,17.60
2018-06-09T15:42:35.042Z,19.33
2018-06-09T15:45:03.673Z,16.93
2018-06-09T15:47:32.316Z,17.50
2018-06-09T15:50:00.885Z,15.93
2018-06-09T15:52:29.534Z,17.10
2018-06-09T15:54:58.071Z,16.77
2018-06-09T15:57:26.659Z,15.27
2018-06-09T15:59:55.314Z,12.83
2018-06-09T16:02:23.879Z,16.87
2018-06-09T16:04:52.498Z,17.10
2018-06-09T16:07:21.125Z,16.53
2018-06-09T16:09:49.716Z,16.20
2018-06-09T16:12:18.614Z,18.10
2018-06-09T16:14:47.302Z,17.87
2018-06-09T16:17:15.931Z,17.47
2018-06-09T16:19:44.563Z,16.07
2018-06-09T16:22:13.200Z,14.00
2018-06-09T16:24:41.818Z,16.53
2018-06-09T16:27:10.395Z,15.80
2018-06-09T16:29:38.963Z,16.57
2018-06-09T16:32:07.551Z,17.00
2018-06-09T16:34:36.195Z,13.93
2018-06-09T16:37:04.910Z,16.50
2018-06-09T16:39:33.578Z,15.80
2018-06-09T16:42:02.156Z,13.90
2018-06-09T16:44:30.804Z,18.97
2018-06-09T16:46:59.403Z,16.43
2018-06-09T16:49:28.059Z,17.53
2018-06-09T16:51:56.733Z,15.70
2018-06-09T16:54:25.341Z,19.50
2018-06-09T16:56:54.102Z,17.20
2018-06-09T16:59:22.827Z,16.90
2018-06-09T17:01:51.488Z,15.47
2018-06-09T17:04:20.193Z,18.50
2018-06-09T17:06:48.813Z,16.60
2018-06-09T17:09:17.491Z,16.47
2018-06-09T17:11:46.096Z,16.90
2018-06-09T17:14:14.698Z,15.93
2018-06-09T17:16:43.394Z,17.93
2018-06-09T17:19:12.041Z,16.47
2018-06-09T17:21:40.755Z,16.60
2018-06-09T17:24:09.442Z,16.67
2018-06-09T17:26:38.241Z,16.30
2018-06-09T17:29:06.943Z,18.43
2018-06-09T17:31:35.607Z,16.37
2018-06-09T17:34:04.559Z,17.73
2018-06-09T17:36:33.145Z,18.20
2018-06-09T17:39:01.431Z,17.20
2018-06-09T17:41:30.090Z,17.33
2018-06-09T17:43:58.708Z,17.10
2018-06-09T17:46:28.230Z,16.60
2018-06-09T17:48:56.916Z,17.40
2018-06-09T17:51:25.534Z,16.60
2018-06-09T17:53:54.160Z,18.10
2018-06-09T17:56:22.977Z,16.83
2018-06-09T17:58:51.680Z,17.60
2018-06-09T18:01:20.319Z,17.73
2018-06-09T18:03:48.980Z,16.87
2018-06-09T18:06:17.593Z,18.97
2018-06-09T18:08:46.278Z,20.17
2018-06-09T18:11:14.522Z,18.27
2018-06-09T18:13:43.202Z,16.80
2018-06-09T18:16:11.965Z,18.37
2018-06-09T18:18:40.750Z,18.70
2018-06-09T18:21:09.441Z,20.30
2018-06-09T18:23:38.147Z,19.03
2018-06-09T18:26:06.841Z,16.50
2018-06-09T18:28:35.596Z,17.90
2018-06-09T18:31:04.279Z,18.37
2018-06-09T18:33:32.988Z,19.47
2018-06-09T18:36:01.628Z,18.53
2018-06-09T18:38:30.281Z,19.17
2018-06-09T18:40:58.903Z,18.40
2018-06-09T18:43:27.598Z,19.97
2018-06-09T18:45:56.513Z,19.53
2018-06-09T18:48:25.117Z,19.13
2018-06-09T18:50:53.763Z,16.97
2018-06-09T18:53:22.545Z,17.33
2018-06-09T18:55:51.260Z,17.73
2018-06-09T18:58:19.902Z,20.03
2018-06-09T19:00:48.608Z,19.27
2018-06-09T19:03:17.269Z,17.70
2018-06-09T19:05:45.918Z,19.73
2018-06-09T19:08:14.570Z,18.17
2018-06-09T19:10:43.282Z,17.90
2018-06-09T19:13:11.878Z,18.90
2018-06-09T19:15:40.631Z,19.07
2018-06-09T19:18:09.282Z,18.47
2018-06-09T19:20:38.021Z,18.90
2018-06-09T19:23:06.735Z,18.90
2018-06-09T19:25:35.481Z,19.40
2018-06-09T19:28:04.226Z,17.93
2018-06-09T19:30:32.973Z,19.00
2018-06-09T19:33:01.654Z,19.70
2018-06-09T19:35:30.699Z,18.97
2018-06-09T19:37:59.483Z,19.23
2018-06-09T19:40:28.095Z,20.13
2018-06-09T19:42:56.886Z,18.80
2018-06-09T19:45:25.595Z,16.53
2018-06-09T19:47:54.136Z,18.60
2018-06-09T19:50:23.832Z,17.23
2018-06-09T19:52:52.430Z,12.80
2018-06-09T19:55:21.120Z,9.37
2018-06-09T19:57:49.806Z,8.03
2018-06-09T20:00:18.447Z,8.20
2018-06-09T20:02:47.031Z,7.20
2018-06-09T20:05:15.679Z,7.90
2018-06-09T20:07:44.434Z,7.83
2018-06-09T20:10:13.116Z,9.60
2018-06-09T20:12:42.303Z,8.00
2018-06-09T20:15:11.823Z,17.40
2018-06-09T20:17:40.451Z,16.03
2018-06-09T20:20:10.201Z,12.70
2018-06-09T20:22:39.801Z,12.53
2018-06-09T20:25:08.562Z,10.80
2018-06-09T20:27:37.890Z,13.77
2018-06-09T20:30:06.493Z,14.00
2018-06-09T20:32:35.162Z,13.67
2018-06-09T20:35:03.862Z,9.60
2018-06-09T20:37:32.581Z,10.50
2018-06-09T20:40:01.298Z,10.57
2018-06-09T20:42:30.002Z,12.43
2018-06-09T20:44:58.640Z,8.93
2018-06-09T20:47:27.350Z,7.40
2018-06-09T20:49:55.985Z,8.87
2018-06-09T20:52:24.669Z,7.70
2018-06-09T20:54:53.354Z,8.63
2018-06-09T20:57:21.932Z,8.93
2018-06-09T20:59:50.628Z,7.67
2018-06-09T21:02:19.239Z,6.20
2018-06-09T21:04:47.924Z,5.90
2018-06-09T21:07:16.617Z,7.43
2018-06-09T21:09:45.282Z,10.50
2018-06-09T21:12:13.921Z,6.70
2018-06-09T21:14:42.571Z,7.93
2018-06-09T21:17:11.195Z,8.57
2018-06-09T21:19:39.872Z,8.27
2018-06-09T21:22:08.550Z,8.40
2018-06-09T21:24:37.235Z,10.10
2018-06-09T21:27:11.168Z,9.23
2018-06-09T21:29:45.112Z,9.77
2018-06-09T21:32:17.905Z,10.13
2018-06-09T21:35:04.371Z,9.60
2018-06-09T21:37:38.440Z,12.63
2018-06-09T21:40:11.239Z,13.20
2018-06-09T21:42:48.986Z,12.70
2018-06-09T21:45:23.736Z,13.23
2018-06-09T21:47:52.759Z,13.60
2018-06-09T21:50:21.449Z,12.23
2018-06-09T21:52:50.146Z,14.07
2018-06-09T21:55:18.770Z,12.00
2018-06-09T21:57:47.380Z,13.10
2018-06-09T22:00:16.095Z,12.87
2018-06-09T22:02:44.720Z,12.47
2018-06-09T22:05:13.353Z,12.47
2018-06-09T22:07:42.039Z,13.27
2018-06-09T22:10:10.781Z,13.23
2018-06-09T22:12:39.380Z,12.80
2018-06-09T22:15:08.014Z,13.20
2018-06-09T22:17:36.635Z,12.87
2018-06-09T22:20:05.301Z,13.80
2018-06-09T22:22:33.940Z,13.43
2018-06-09T22:25:02.560Z,14.30
2018-06-09T22:27:31.437Z,15.50
2018-06-09T22:29:59.996Z,15.77
2018-06-09T22:32:28.747Z,15.83
2018-06-09T22:34:57.320Z,15.70
2018-06-09T22:37:25.912Z,16.33
2018-06-09T22:39:54.495Z,16.03
2018-06-09T22:42:23.063Z,14.90
2018-06-09T22:44:51.732Z,16.30
2018-06-09T22:47:20.341Z,16.77
2018-06-09T22:49:48.967Z,16.20
2018-06-09T22:52:17.616Z,16.20
2018-06-09T22:54:46.338Z,16.63
2018-06-09T22:57:14.988Z,14.33
2018-06-09T22:59:43.532Z,15.47
2018-06-09T23:02:12.207Z,14.53
2018-06-09T23:04:40.754Z,15.27
2018-06-09T23:07:09.364Z,14.47
2018-06-09T23:09:37.928Z,14.03
2018-06-09T23:12:06.504Z,16.20
2018-06-09T23:14:35.115Z,15.70
2018-06-09T23:17:03.699Z,14.53
2018-06-09T23:19:32.370Z,14.23
2018-06-09T23:22:00.937Z,14.40
2018-06-09T23:24:29.553Z,13.33
2018-06-09T23:26:58.216Z,13.60
2018-06-09T23:29:26.807Z,12.27
2018-06-09T23:31:55.391Z,13.27
2018-06-09T23:34:23.967Z,12.80
2018-06-09T23:36:52.691Z,13.40
2018-06-09T23:39:21.257Z,14.00
2018-06-09T23:41:49.847Z,13.53
2018-06-09T23:44:18.456Z,14.17
2018-06-09T23:46:47.010Z,15.30
2018-06-09T23:49:15.631Z,15.47
2018-06-09T23:51:44.186Z,15.33
2018-06-09T23:54:12.794Z,16.00
2018-06-09T23:56:41.418Z,15.77
2018-06-09T23:59:10.008Z,15.90
